sensor_id;sensor_type;location;lat;lon;timestamp;P1;durP1;ratioP1;P2;durP2;ratioP2
36283;SDS011;56085;48.910;9.478;2024-03-25T00:00:58;4.20;;;1.52;;
36283;SDS011;56085;48.910;9.478;2024-03-25T00:03:24;2.22;;;1.27;;
36283;SDS011;56085;48.910;9.478;2024-03-25T00:05:49;2.72;;;1.35;;
36283;SDS011;56085;48.910;9.478;2024-03-25T00:08:15;2.20;;;1.20;;
36283;SDS011;56085;48.910;9.478;2024-03-25T00:10:40;3.78;;;1.92;;
36283;SDS011;56085;48.910;9.478;2024-03-25T00:13:05;4.28;;;1.65;;
36283;SDS011;56085;48.910;9.478;2024-03-25T00:15:31;3.25;;;1.40;;
36283;SDS011;56085;48.910;9.478;2024-03-25T00:17:56;6.85;;;1.73;;
36283;SDS011;56085;48.910;9.478;2024-03-25T00:20:21;2.17;;;1.30;;
36283;SDS011;56085;48.910;9.478;2024-03-25T00:22:46;3.45;;;1.60;;
36283;SDS011;56085;48.910;9.478;2024-03-25T00:25:12;2.55;;;1.38;;
36283;SDS011;56085;48.910;9.478;2024-03-25T00:27:37;2.75;;;1.45;;
36283;SDS011;56085;48.910;9.478;2024-03-25T00:30:02;1.98;;;1.17;;
36283;SDS011;56085;48.910;9.478;2024-03-25T00:32:28;3.33;;;1.48;;
36283;SDS011;56085;48.910;9.478;2024-03-25T00:34:53;4.03;;;1.30;;
36283;SDS011;56085;48.910;9.478;2024-03-25T00:37:18;4.63;;;1.65;;
36283;SDS011;56085;48.910;9.478;2024-03-25T00:39:44;2.58;;;1.40;;
36283;SDS011;56085;48.910;9.478;2024-03-25T00:42:10;6.75;;;1.92;;
36283;SDS011;56085;48.910;9.478;2024-03-25T00:44:35;5.43;;;1.55;;
36283;SDS011;56085;48.910;9.478;2024-03-25T00:47:00;3.97;;;1.55;;
36283;SDS011;56085;48.910;9.478;2024-03-25T00:49:26;3.28;;;1.58;;
36283;SDS011;56085;48.910;9.478;2024-03-25T00:51:51;3.78;;;1.55;;
36283;SDS011;56085;48.910;9.478;2024-03-25T00:54:17;3.83;;;1.80;;
36283;SDS011;56085;48.910;9.478;2024-03-25T00:56:42;3.47;;;1.65;;
36283;SDS011;56085;48.910;9.478;2024-03-25T00:59:09;4.57;;;2.10;;
36283;SDS011;56085;48.910;9.478;2024-03-25T01:01:34;3.95;;;1.70;;
36283;SDS011;56085;48.910;9.478;2024-03-25T01:04:00;5.72;;;1.40;;
36283;SDS011;56085;48.910;9.478;2024-03-25T01:06:26;4.72;;;1.58;;
36283;SDS011;56085;48.910;9.478;2024-03-25T01:08:52;4.22;;;1.60;;
36283;SDS011;56085;48.910;9.478;2024-03-25T01:11:17;4.30;;;1.73;;
36283;SDS011;56085;48.910;9.478;2024-03-25T01:13:42;2.92;;;1.42;;
36283;SDS011;56085;48.910;9.478;2024-03-25T01:16:08;2.53;;;1.38;;
36283;SDS011;56085;48.910;9.478;2024-03-25T01:18:33;5.00;;;1.70;;
36283;SDS011;56085;48.910;9.478;2024-03-25T01:20:59;3.20;;;1.40;;
36283;SDS011;56085;48.910;9.478;2024-03-25T01:23:24;4.22;;;1.90;;
36283;SDS011;56085;48.910;9.478;2024-03-25T01:25:49;3.20;;;1.50;;
36283;SDS011;56085;48.910;9.478;2024-03-25T01:28:14;3.17;;;1.52;;
36283;SDS011;56085;48.910;9.478;2024-03-25T01:30:40;2.75;;;1.33;;
36283;SDS011;56085;48.910;9.478;2024-03-25T01:33:05;5.63;;;1.90;;
36283;SDS011;56085;48.910;9.478;2024-03-25T01:35:31;2.90;;;1.70;;
36283;SDS011;56085;48.910;9.478;2024-03-25T01:37:57;6.85;;;1.92;;
36283;SDS011;56085;48.910;9.478;2024-03-25T01:40:22;5.72;;;1.63;;
36283;SDS011;56085;48.910;9.478;2024-03-25T01:42:57;2.83;;;1.63;;
36283;SDS011;56085;48.910;9.478;2024-03-25T01:45:24;6.30;;;2.13;;
36283;SDS011;56085;48.910;9.478;2024-03-25T01:47:50;3.97;;;1.63;;
36283;SDS011;56085;48.910;9.478;2024-03-25T01:50:16;6.55;;;1.92;;
36283;SDS011;56085;48.910;9.478;2024-03-25T01:52:42;3.78;;;1.83;;
36283;SDS011;56085;48.910;9.478;2024-03-25T01:55:07;3.88;;;1.70;;
36283;SDS011;56085;48.910;9.478;2024-03-25T01:57:40;3.30;;;1.77;;
36283;SDS011;56085;48.910;9.478;2024-03-25T02:00:06;3.30;;;1.77;;
36283;SDS011;56085;48.910;9.478;2024-03-25T02:02:31;5.40;;;1.70;;
36283;SDS011;56085;48.910;9.478;2024-03-25T02:05:00;3.70;;;1.88;;
36283;SDS011;56085;48.910;9.478;2024-03-25T02:07:27;3.85;;;1.70;;
36283;SDS011;56085;48.910;9.478;2024-03-25T02:09:53;5.63;;;2.03;;
36283;SDS011;56085;48.910;9.478;2024-03-25T02:12:20;4.43;;;1.73;;
36283;SDS011;56085;48.910;9.478;2024-03-25T02:14:46;4.72;;;2.03;;
36283;SDS011;56085;48.910;9.478;2024-03-25T02:17:12;6.38;;;2.30;;
36283;SDS011;56085;48.910;9.478;2024-03-25T02:19:37;6.45;;;2.15;;
36283;SDS011;56085;48.910;9.478;2024-03-25T02:22:05;3.58;;;1.52;;
36283;SDS011;56085;48.910;9.478;2024-03-25T02:24:30;5.00;;;1.88;;
36283;SDS011;56085;48.910;9.478;2024-03-25T02:26:56;4.28;;;1.85;;
36283;SDS011;56085;48.910;9.478;2024-03-25T02:29:21;4.63;;;1.90;;
36283;SDS011;56085;48.910;9.478;2024-03-25T02:31:46;5.07;;;1.83;;
36283;SDS011;56085;48.910;9.478;2024-03-25T02:34:13;3.58;;;1.90;;
36283;SDS011;56085;48.910;9.478;2024-03-25T02:36:38;3.10;;;1.65;;
36283;SDS011;56085;48.910;9.478;2024-03-25T02:39:03;5.88;;;2.00;;
36283;SDS011;56085;48.910;9.478;2024-03-25T02:41:29;3.88;;;1.67;;
36283;SDS011;56085;48.910;9.478;2024-03-25T02:43:56;3.75;;;1.80;;
36283;SDS011;56085;48.910;9.478;2024-03-25T02:46:22;3.25;;;1.50;;
36283;SDS011;56085;48.910;9.478;2024-03-25T02:48:47;3.28;;;1.83;;
36283;SDS011;56085;48.910;9.478;2024-03-25T02:51:12;3.22;;;1.75;;
36283;SDS011;56085;48.910;9.478;2024-03-25T02:53:38;2.42;;;1.70;;
36283;SDS011;56085;48.910;9.478;2024-03-25T02:56:03;3.25;;;1.70;;
36283;SDS011;56085;48.910;9.478;2024-03-25T02:58:28;3.78;;;1.88;;
36283;SDS011;56085;48.910;9.478;2024-03-25T03:00:54;4.40;;;2.17;;
36283;SDS011;56085;48.910;9.478;2024-03-25T03:03:19;3.55;;;1.60;;
36283;SDS011;56085;48.910;9.478;2024-03-25T03:05:44;3.75;;;2.00;;
36283;SDS011;56085;48.910;9.478;2024-03-25T03:08:09;3.88;;;1.70;;
36283;SDS011;56085;48.910;9.478;2024-03-25T03:10:35;3.83;;;1.58;;
36283;SDS011;56085;48.910;9.478;2024-03-25T03:13:00;3.40;;;1.88;;
36283;SDS011;56085;48.910;9.478;2024-03-25T03:15:25;4.57;;;1.90;;
36283;SDS011;56085;48.910;9.478;2024-03-25T03:17:50;6.03;;;3.33;;
36283;SDS011;56085;48.910;9.478;2024-03-25T03:20:16;8.38;;;3.53;;
36283;SDS011;56085;48.910;9.478;2024-03-25T03:22:41;4.50;;;1.98;;
36283;SDS011;56085;48.910;9.478;2024-03-25T03:25:07;3.90;;;2.03;;
36283;SDS011;56085;48.910;9.478;2024-03-25T03:27:32;6.88;;;2.20;;
36283;SDS011;56085;48.910;9.478;2024-03-25T03:29:57;4.22;;;2.10;;
36283;SDS011;56085;48.910;9.478;2024-03-25T03:32:23;4.03;;;2.10;;
36283;SDS011;56085;48.910;9.478;2024-03-25T03:34:48;4.90;;;2.10;;
36283;SDS011;56085;48.910;9.478;2024-03-25T03:37:13;3.33;;;2.03;;
36283;SDS011;56085;48.910;9.478;2024-03-25T03:39:39;4.13;;;2.17;;
36283;SDS011;56085;48.910;9.478;2024-03-25T03:42:04;6.93;;;2.20;;
36283;SDS011;56085;48.910;9.478;2024-03-25T03:44:29;5.35;;;2.35;;
36283;SDS011;56085;48.910;9.478;2024-03-25T03:46:54;4.63;;;2.17;;
36283;SDS011;56085;48.910;9.478;2024-03-25T03:49:20;3.97;;;2.20;;
36283;SDS011;56085;48.910;9.478;2024-03-25T03:51:45;3.75;;;1.90;;
36283;SDS011;56085;48.910;9.478;2024-03-25T03:54:11;3.25;;;1.83;;
36283;SDS011;56085;48.910;9.478;2024-03-25T03:56:36;6.35;;;2.22;;
36283;SDS011;56085;48.910;9.478;2024-03-25T03:59:01;5.47;;;2.35;;
36283;SDS011;56085;48.910;9.478;2024-03-25T04:01:27;5.78;;;2.25;;
36283;SDS011;56085;48.910;9.478;2024-03-25T04:03:52;3.58;;;1.65;;
36283;SDS011;56085;48.910;9.478;2024-03-25T04:06:17;5.50;;;2.55;;
36283;SDS011;56085;48.910;9.478;2024-03-25T04:08:42;5.15;;;2.40;;
36283;SDS011;56085;48.910;9.478;2024-03-25T04:11:08;3.35;;;2.17;;
36283;SDS011;56085;48.910;9.478;2024-03-25T04:13:34;4.82;;;2.30;;
36283;SDS011;56085;48.910;9.478;2024-03-25T04:16:03;7.93;;;2.42;;
36283;SDS011;56085;48.910;9.478;2024-03-25T04:18:30;5.20;;;2.47;;
36283;SDS011;56085;48.910;9.478;2024-03-25T04:20:56;3.92;;;2.25;;
36283;SDS011;56085;48.910;9.478;2024-03-25T04:23:21;5.57;;;2.20;;
36283;SDS011;56085;48.910;9.478;2024-03-25T04:25:47;3.65;;;2.10;;
36283;SDS011;56085;48.910;9.478;2024-03-25T04:28:13;3.50;;;1.90;;
36283;SDS011;56085;48.910;9.478;2024-03-25T04:30:38;3.40;;;1.65;;
36283;SDS011;56085;48.910;9.478;2024-03-25T04:33:04;4.65;;;2.10;;
36283;SDS011;56085;48.910;9.478;2024-03-25T04:35:29;8.77;;;2.63;;
36283;SDS011;56085;48.910;9.478;2024-03-25T04:37:54;8.05;;;2.15;;
36283;SDS011;56085;48.910;9.478;2024-03-25T04:40:20;4.43;;;1.73;;
36283;SDS011;56085;48.910;9.478;2024-03-25T04:42:45;5.00;;;2.28;;
36283;SDS011;56085;48.910;9.478;2024-03-25T04:45:11;5.97;;;2.10;;
36283;SDS011;56085;48.910;9.478;2024-03-25T04:47:37;5.90;;;2.20;;
36283;SDS011;56085;48.910;9.478;2024-03-25T04:50:02;4.10;;;2.17;;
36283;SDS011;56085;48.910;9.478;2024-03-25T04:52:28;4.25;;;2.15;;
36283;SDS011;56085;48.910;9.478;2024-03-25T04:54:53;5.00;;;2.88;;
36283;SDS011;56085;48.910;9.478;2024-03-25T04:57:18;8.48;;;4.88;;
36283;SDS011;56085;48.910;9.478;2024-03-25T04:59:43;7.50;;;4.45;;
36283;SDS011;56085;48.910;9.478;2024-03-25T05:02:09;6.70;;;3.30;;
36283;SDS011;56085;48.910;9.478;2024-03-25T05:04:34;9.15;;;4.30;;
36283;SDS011;56085;48.910;9.478;2024-03-25T05:07:00;16.77;;;7.93;;
36283;SDS011;56085;48.910;9.478;2024-03-25T05:09:26;17.20;;;7.78;;
36283;SDS011;56085;48.910;9.478;2024-03-25T05:11:51;9.45;;;3.88;;
36283;SDS011;56085;48.910;9.478;2024-03-25T05:14:16;5.55;;;2.72;;
36283;SDS011;56085;48.910;9.478;2024-03-25T05:16:42;6.32;;;2.97;;
36283;SDS011;56085;48.910;9.478;2024-03-25T05:19:07;4.07;;;1.85;;
36283;SDS011;56085;48.910;9.478;2024-03-25T05:21:32;5.95;;;2.17;;
36283;SDS011;56085;48.910;9.478;2024-03-25T05:23:58;3.67;;;2.13;;
36283;SDS011;56085;48.910;9.478;2024-03-25T05:26:24;6.38;;;2.35;;
36283;SDS011;56085;48.910;9.478;2024-03-25T05:28:52;5.38;;;2.58;;
36283;SDS011;56085;48.910;9.478;2024-03-25T05:31:18;4.47;;;2.67;;
36283;SDS011;56085;48.910;9.478;2024-03-25T05:33:44;4.63;;;2.30;;
36283;SDS011;56085;48.910;9.478;2024-03-25T05:36:09;6.28;;;2.35;;
36283;SDS011;56085;48.910;9.478;2024-03-25T05:38:34;5.72;;;2.17;;
36283;SDS011;56085;48.910;9.478;2024-03-25T05:41:00;4.20;;;2.10;;
36283;SDS011;56085;48.910;9.478;2024-03-25T05:43:25;5.85;;;2.30;;
36283;SDS011;56085;48.910;9.478;2024-03-25T05:45:50;5.43;;;2.38;;
36283;SDS011;56085;48.910;9.478;2024-03-25T05:48:16;3.67;;;1.95;;
36283;SDS011;56085;48.910;9.478;2024-03-25T05:50:42;4.93;;;2.65;;
36283;SDS011;56085;48.910;9.478;2024-03-25T05:53:07;8.20;;;3.50;;
36283;SDS011;56085;48.910;9.478;2024-03-25T05:55:33;5.10;;;2.78;;
36283;SDS011;56085;48.910;9.478;2024-03-25T05:57:58;4.95;;;2.42;;
36283;SDS011;56085;48.910;9.478;2024-03-25T06:00:23;4.97;;;2.63;;
36283;SDS011;56085;48.910;9.478;2024-03-25T06:02:49;5.72;;;2.53;;
36283;SDS011;56085;48.910;9.478;2024-03-25T06:05:15;7.93;;;3.33;;
36283;SDS011;56085;48.910;9.478;2024-03-25T06:07:40;7.30;;;2.40;;
36283;SDS011;56085;48.910;9.478;2024-03-25T06:10:05;5.78;;;2.95;;
36283;SDS011;56085;48.910;9.478;2024-03-25T06:12:31;6.90;;;2.88;;
36283;SDS011;56085;48.910;9.478;2024-03-25T06:14:56;6.05;;;2.95;;
36283;SDS011;56085;48.910;9.478;2024-03-25T06:17:21;5.68;;;2.75;;
36283;SDS011;56085;48.910;9.478;2024-03-25T06:19:47;7.28;;;2.88;;
36283;SDS011;56085;48.910;9.478;2024-03-25T06:22:12;7.13;;;2.88;;
36283;SDS011;56085;48.910;9.478;2024-03-25T06:24:37;7.90;;;4.18;;
36283;SDS011;56085;48.910;9.478;2024-03-25T06:27:02;5.78;;;3.22;;
36283;SDS011;56085;48.910;9.478;2024-03-25T06:29:28;6.32;;;3.53;;
36283;SDS011;56085;48.910;9.478;2024-03-25T06:31:53;5.93;;;2.95;;
36283;SDS011;56085;48.910;9.478;2024-03-25T06:34:37;5.10;;;2.33;;
36283;SDS011;56085;48.910;9.478;2024-03-25T06:37:03;6.10;;;2.55;;
36283;SDS011;56085;48.910;9.478;2024-03-25T06:39:29;4.78;;;2.42;;
36283;SDS011;56085;48.910;9.478;2024-03-25T06:41:54;5.78;;;2.50;;
36283;SDS011;56085;48.910;9.478;2024-03-25T06:44:19;6.53;;;2.60;;
36283;SDS011;56085;48.910;9.478;2024-03-25T06:46:45;3.78;;;2.45;;
36283;SDS011;56085;48.910;9.478;2024-03-25T06:49:10;5.30;;;2.67;;
36283;SDS011;56085;48.910;9.478;2024-03-25T06:51:36;6.65;;;2.90;;
36283;SDS011;56085;48.910;9.478;2024-03-25T06:54:01;4.25;;;2.15;;
36283;SDS011;56085;48.910;9.478;2024-03-25T06:56:26;7.20;;;2.42;;
36283;SDS011;56085;48.910;9.478;2024-03-25T06:58:52;5.13;;;2.33;;
36283;SDS011;56085;48.910;9.478;2024-03-25T07:01:17;5.40;;;2.78;;
36283;SDS011;56085;48.910;9.478;2024-03-25T07:03:43;6.30;;;2.55;;
36283;SDS011;56085;48.910;9.478;2024-03-25T07:06:09;6.70;;;2.60;;
36283;SDS011;56085;48.910;9.478;2024-03-25T07:08:34;5.53;;;2.60;;
36283;SDS011;56085;48.910;9.478;2024-03-25T07:10:59;6.80;;;2.67;;
36283;SDS011;56085;48.910;9.478;2024-03-25T07:13:24;8.55;;;3.10;;
36283;SDS011;56085;48.910;9.478;2024-03-25T07:15:50;6.32;;;2.60;;
36283;SDS011;56085;48.910;9.478;2024-03-25T07:18:15;5.90;;;2.75;;
36283;SDS011;56085;48.910;9.478;2024-03-25T07:20:41;5.43;;;2.38;;
36283;SDS011;56085;48.910;9.478;2024-03-25T07:23:08;5.95;;;3.13;;
36283;SDS011;56085;48.910;9.478;2024-03-25T07:25:33;5.10;;;3.00;;
36283;SDS011;56085;48.910;9.478;2024-03-25T07:27:59;6.60;;;2.80;;
36283;SDS011;56085;48.910;9.478;2024-03-25T07:30:24;6.95;;;2.90;;
36283;SDS011;56085;48.910;9.478;2024-03-25T07:32:53;8.40;;;3.13;;
36283;SDS011;56085;48.910;9.478;2024-03-25T07:35:21;5.80;;;3.03;;
36283;SDS011;56085;48.910;9.478;2024-03-25T07:37:47;6.47;;;2.88;;
36283;SDS011;56085;48.910;9.478;2024-03-25T07:40:16;6.93;;;2.70;;
36283;SDS011;56085;48.910;9.478;2024-03-25T07:42:41;5.95;;;2.45;;
36283;SDS011;56085;48.910;9.478;2024-03-25T07:45:07;9.65;;;3.10;;
36283;SDS011;56085;48.910;9.478;2024-03-25T07:47:32;6.78;;;2.92;;
36283;SDS011;56085;48.910;9.478;2024-03-25T07:49:58;6.88;;;2.83;;
36283;SDS011;56085;48.910;9.478;2024-03-25T07:52:24;9.27;;;3.63;;
36283;SDS011;56085;48.910;9.478;2024-03-25T07:54:49;7.35;;;2.80;;
36283;SDS011;56085;48.910;9.478;2024-03-25T07:57:15;6.13;;;3.17;;
36283;SDS011;56085;48.910;9.478;2024-03-25T07:59:40;10.35;;;3.92;;
36283;SDS011;56085;48.910;9.478;2024-03-25T08:02:05;5.60;;;2.80;;
36283;SDS011;56085;48.910;9.478;2024-03-25T08:04:30;8.18;;;3.00;;
36283;SDS011;56085;48.910;9.478;2024-03-25T08:06:55;6.97;;;2.78;;
36283;SDS011;56085;48.910;9.478;2024-03-25T08:09:21;5.32;;;2.75;;
36283;SDS011;56085;48.910;9.478;2024-03-25T08:11:46;5.82;;;2.50;;
36283;SDS011;56085;48.910;9.478;2024-03-25T08:14:11;4.68;;;2.50;;
36283;SDS011;56085;48.910;9.478;2024-03-25T08:16:37;5.43;;;2.60;;
36283;SDS011;56085;48.910;9.478;2024-03-25T08:19:02;7.22;;;2.40;;
36283;SDS011;56085;48.910;9.478;2024-03-25T08:21:27;6.03;;;3.05;;
36283;SDS011;56085;48.910;9.478;2024-03-25T08:23:53;4.90;;;2.95;;
36283;SDS011;56085;48.910;9.478;2024-03-25T08:26:18;6.00;;;2.47;;
36283;SDS011;56085;48.910;9.478;2024-03-25T08:28:43;7.25;;;2.53;;
36283;SDS011;56085;48.910;9.478;2024-03-25T08:31:09;5.43;;;2.55;;
36283;SDS011;56085;48.910;9.478;2024-03-25T08:33:34;5.97;;;2.28;;
36283;SDS011;56085;48.910;9.478;2024-03-25T08:35:59;4.70;;;2.35;;
36283;SDS011;56085;48.910;9.478;2024-03-25T08:38:25;4.88;;;2.33;;
36283;SDS011;56085;48.910;9.478;2024-03-25T08:40:50;5.03;;;2.30;;
36283;SDS011;56085;48.910;9.478;2024-03-25T08:43:16;4.63;;;2.22;;
36283;SDS011;56085;48.910;9.478;2024-03-25T08:45:42;3.30;;;1.80;;
36283;SDS011;56085;48.910;9.478;2024-03-25T08:48:07;5.80;;;2.30;;
36283;SDS011;56085;48.910;9.478;2024-03-25T08:50:33;4.78;;;2.40;;
36283;SDS011;56085;48.910;9.478;2024-03-25T08:52:58;3.97;;;2.00;;
36283;SDS011;56085;48.910;9.478;2024-03-25T08:55:23;5.30;;;1.77;;
36283;SDS011;56085;48.910;9.478;2024-03-25T08:57:49;3.15;;;1.88;;
36283;SDS011;56085;48.910;9.478;2024-03-25T09:00:14;3.63;;;1.88;;
36283;SDS011;56085;48.910;9.478;2024-03-25T09:02:40;8.70;;;2.00;;
36283;SDS011;56085;48.910;9.478;2024-03-25T09:05:05;5.20;;;1.98;;
36283;SDS011;56085;48.910;9.478;2024-03-25T09:07:32;3.88;;;1.73;;
36283;SDS011;56085;48.910;9.478;2024-03-25T09:09:57;3.97;;;2.05;;
36283;SDS011;56085;48.910;9.478;2024-03-25T09:12:41;5.75;;;2.40;;
36283;SDS011;56085;48.910;9.478;2024-03-25T09:15:07;4.38;;;1.95;;
36283;SDS011;56085;48.910;9.478;2024-03-25T09:17:33;6.18;;;1.60;;
36283;SDS011;56085;48.910;9.478;2024-03-25T09:19:58;6.97;;;1.75;;
36283;SDS011;56085;48.910;9.478;2024-03-25T09:22:24;4.88;;;1.50;;
36283;SDS011;56085;48.910;9.478;2024-03-25T09:24:49;7.47;;;2.10;;
36283;SDS011;56085;48.910;9.478;2024-03-25T09:27:15;4.70;;;1.77;;
36283;SDS011;56085;48.910;9.478;2024-03-25T09:29:41;6.05;;;2.25;;
36283;SDS011;56085;48.910;9.478;2024-03-25T09:32:06;7.15;;;2.20;;
36283;SDS011;56085;48.910;9.478;2024-03-25T09:34:32;2.70;;;1.75;;
36283;SDS011;56085;48.910;9.478;2024-03-25T09:36:57;4.70;;;1.60;;
36283;SDS011;56085;48.910;9.478;2024-03-25T09:39:22;4.13;;;1.55;;
36283;SDS011;56085;48.910;9.478;2024-03-25T09:41:48;7.20;;;1.80;;
36283;SDS011;56085;48.910;9.478;2024-03-25T09:44:15;3.78;;;1.67;;
36283;SDS011;56085;48.910;9.478;2024-03-25T09:46:44;6.25;;;2.15;;
36283;SDS011;56085;48.910;9.478;2024-03-25T09:49:09;4.38;;;1.90;;
36283;SDS011;56085;48.910;9.478;2024-03-25T09:51:34;5.25;;;1.88;;
36283;SDS011;56085;48.910;9.478;2024-03-25T09:53:59;6.28;;;2.35;;
36283;SDS011;56085;48.910;9.478;2024-03-25T09:56:25;2.55;;;1.55;;
36283;SDS011;56085;48.910;9.478;2024-03-25T09:58:51;3.90;;;1.67;;
36283;SDS011;56085;48.910;9.478;2024-03-25T10:01:17;7.40;;;1.88;;
36283;SDS011;56085;48.910;9.478;2024-03-25T10:03:43;5.82;;;1.73;;
36283;SDS011;56085;48.910;9.478;2024-03-25T10:06:08;7.45;;;1.67;;
36283;SDS011;56085;48.910;9.478;2024-03-25T10:08:35;6.00;;;2.38;;
36283;SDS011;56085;48.910;9.478;2024-03-25T10:11:00;3.65;;;2.00;;
36283;SDS011;56085;48.910;9.478;2024-03-25T10:13:27;4.15;;;1.60;;
36283;SDS011;56085;48.910;9.478;2024-03-25T10:15:52;3.92;;;2.00;;
36283;SDS011;56085;48.910;9.478;2024-03-25T10:18:19;4.75;;;1.58;;
36283;SDS011;56085;48.910;9.478;2024-03-25T10:20:48;4.45;;;1.63;;
36283;SDS011;56085;48.910;9.478;2024-03-25T10:23:14;5.40;;;1.50;;
36283;SDS011;56085;48.910;9.478;2024-03-25T10:25:39;4.43;;;1.83;;
36283;SDS011;56085;48.910;9.478;2024-03-25T10:28:05;3.15;;;1.67;;
36283;SDS011;56085;48.910;9.478;2024-03-25T10:30:31;4.60;;;1.80;;
36283;SDS011;56085;48.910;9.478;2024-03-25T10:33:00;5.05;;;1.75;;
36283;SDS011;56085;48.910;9.478;2024-03-25T10:35:27;6.32;;;2.15;;
36283;SDS011;56085;48.910;9.478;2024-03-25T10:38:00;4.60;;;1.70;;
36283;SDS011;56085;48.910;9.478;2024-03-25T10:40:30;3.55;;;1.48;;
36283;SDS011;56085;48.910;9.478;2024-03-25T10:43:00;4.75;;;1.45;;
36283;SDS011;56085;48.910;9.478;2024-03-25T10:45:43;4.72;;;1.50;;
36283;SDS011;56085;48.910;9.478;2024-03-25T10:48:21;8.30;;;2.00;;
36283;SDS011;56085;48.910;9.478;2024-03-25T10:50:53;4.18;;;2.03;;
36283;SDS011;56085;48.910;9.478;2024-03-25T10:53:20;3.63;;;1.60;;
36283;SDS011;56085;48.910;9.478;2024-03-25T10:55:48;2.15;;;1.35;;
36283;SDS011;56085;48.910;9.478;2024-03-25T10:58:16;2.63;;;1.50;;
36283;SDS011;56085;48.910;9.478;2024-03-25T11:00:41;4.28;;;1.70;;
36283;SDS011;56085;48.910;9.478;2024-03-25T11:03:07;2.88;;;1.38;;
36283;SDS011;56085;48.910;9.478;2024-03-25T11:05:33;3.97;;;1.50;;
36283;SDS011;56085;48.910;9.478;2024-03-25T11:08:09;5.50;;;1.80;;
36283;SDS011;56085;48.910;9.478;2024-03-25T11:10:39;6.00;;;1.90;;
36283;SDS011;56085;48.910;9.478;2024-03-25T11:13:09;4.82;;;1.67;;
36283;SDS011;56085;48.910;9.478;2024-03-25T11:15:35;4.85;;;1.70;;
36283;SDS011;56085;48.910;9.478;2024-03-25T11:18:02;6.53;;;1.50;;
36283;SDS011;56085;48.910;9.478;2024-03-25T11:20:28;2.80;;;1.63;;
36283;SDS011;56085;48.910;9.478;2024-03-25T11:22:53;4.47;;;1.77;;
36283;SDS011;56085;48.910;9.478;2024-03-25T11:25:21;4.00;;;1.85;;
36283;SDS011;56085;48.910;9.478;2024-03-25T11:27:47;3.13;;;1.63;;
36283;SDS011;56085;48.910;9.478;2024-03-25T11:30:13;3.33;;;1.58;;
36283;SDS011;56085;48.910;9.478;2024-03-25T11:35:11;2.85;;;1.27;;
36283;SDS011;56085;48.910;9.478;2024-03-25T11:37:39;3.33;;;1.70;;
36283;SDS011;56085;48.910;9.478;2024-03-25T11:40:06;2.85;;;1.55;;
36283;SDS011;56085;48.910;9.478;2024-03-25T11:42:34;2.92;;;1.27;;
36283;SDS011;56085;48.910;9.478;2024-03-25T11:45:00;3.63;;;1.58;;
36283;SDS011;56085;48.910;9.478;2024-03-25T11:47:26;4.80;;;2.08;;
36283;SDS011;56085;48.910;9.478;2024-03-25T11:49:52;4.50;;;1.50;;
36283;SDS011;56085;48.910;9.478;2024-03-25T11:52:17;3.35;;;1.60;;
36283;SDS011;56085;48.910;9.478;2024-03-25T11:54:43;1.77;;;1.20;;
36283;SDS011;56085;48.910;9.478;2024-03-25T11:57:08;3.25;;;1.50;;
36283;SDS011;56085;48.910;9.478;2024-03-25T11:59:34;4.78;;;2.00;;
36283;SDS011;56085;48.910;9.478;2024-03-25T12:01:59;4.03;;;1.42;;
36283;SDS011;56085;48.910;9.478;2024-03-25T12:04:24;5.45;;;1.50;;
36283;SDS011;56085;48.910;9.478;2024-03-25T12:06:54;4.72;;;1.65;;
36283;SDS011;56085;48.910;9.478;2024-03-25T12:09:21;3.03;;;1.40;;
36283;SDS011;56085;48.910;9.478;2024-03-25T12:12:05;3.22;;;1.60;;
36283;SDS011;56085;48.910;9.478;2024-03-25T12:14:32;2.92;;;1.33;;
36283;SDS011;56085;48.910;9.478;2024-03-25T12:16:58;3.30;;;1.75;;
36283;SDS011;56085;48.910;9.478;2024-03-25T12:19:26;2.45;;;1.00;;
36283;SDS011;56085;48.910;9.478;2024-03-25T12:21:58;3.72;;;1.45;;
36283;SDS011;56085;48.910;9.478;2024-03-25T12:24:25;3.97;;;1.40;;
36283;SDS011;56085;48.910;9.478;2024-03-25T12:26:50;6.75;;;1.75;;
36283;SDS011;56085;48.910;9.478;2024-03-25T12:29:16;3.22;;;1.23;;
36283;SDS011;56085;48.910;9.478;2024-03-25T12:31:41;4.97;;;1.33;;
36283;SDS011;56085;48.910;9.478;2024-03-25T12:34:12;3.08;;;1.52;;
36283;SDS011;56085;48.910;9.478;2024-03-25T12:36:38;2.13;;;1.30;;
36283;SDS011;56085;48.910;9.478;2024-03-25T12:39:03;3.75;;;1.25;;
36283;SDS011;56085;48.910;9.478;2024-03-25T12:41:29;4.18;;;1.88;;
36283;SDS011;56085;48.910;9.478;2024-03-25T12:43:54;2.67;;;1.40;;
36283;SDS011;56085;48.910;9.478;2024-03-25T12:46:19;3.13;;;1.60;;
36283;SDS011;56085;48.910;9.478;2024-03-25T12:48:45;2.65;;;1.27;;
36283;SDS011;56085;48.910;9.478;2024-03-25T12:51:14;2.47;;;1.30;;
36283;SDS011;56085;48.910;9.478;2024-03-25T12:53:40;2.58;;;1.30;;
36283;SDS011;56085;48.910;9.478;2024-03-25T12:56:05;3.95;;;1.38;;
36283;SDS011;56085;48.910;9.478;2024-03-25T12:58:31;4.95;;;1.20;;
36283;SDS011;56085;48.910;9.478;2024-03-25T13:00:57;3.97;;;1.52;;
36283;SDS011;56085;48.910;9.478;2024-03-25T13:03:22;4.03;;;1.20;;
36283;SDS011;56085;48.910;9.478;2024-03-25T13:05:47;2.35;;;1.20;;
36283;SDS011;56085;48.910;9.478;2024-03-25T13:08:13;4.78;;;2.00;;
36283;SDS011;56085;48.910;9.478;2024-03-25T13:10:38;4.55;;;1.63;;
36283;SDS011;56085;48.910;9.478;2024-03-25T13:13:03;2.05;;;1.23;;
36283;SDS011;56085;48.910;9.478;2024-03-25T13:15:30;4.10;;;1.40;;
36283;SDS011;56085;48.910;9.478;2024-03-25T13:17:56;2.00;;;1.30;;
36283;SDS011;56085;48.910;9.478;2024-03-25T13:20:21;3.53;;;1.45;;
36283;SDS011;56085;48.910;9.478;2024-03-25T13:22:48;4.45;;;1.73;;
36283;SDS011;56085;48.910;9.478;2024-03-25T13:25:14;4.18;;;1.65;;
36283;SDS011;56085;48.910;9.478;2024-03-25T13:27:39;2.25;;;1.42;;
36283;SDS011;56085;48.910;9.478;2024-03-25T13:30:05;3.35;;;1.45;;
36283;SDS011;56085;48.910;9.478;2024-03-25T13:32:31;3.35;;;1.83;;
36283;SDS011;56085;48.910;9.478;2024-03-25T13:34:56;1.92;;;1.13;;
36283;SDS011;56085;48.910;9.478;2024-03-25T13:37:22;3.20;;;1.33;;
36283;SDS011;56085;48.910;9.478;2024-03-25T13:39:47;2.70;;;1.40;;
36283;SDS011;56085;48.910;9.478;2024-03-25T13:42:13;2.20;;;1.25;;
36283;SDS011;56085;48.910;9.478;2024-03-25T13:44:39;1.85;;;1.40;;
36283;SDS011;56085;48.910;9.478;2024-03-25T13:47:05;2.78;;;1.80;;
36283;SDS011;56085;48.910;9.478;2024-03-25T13:49:30;2.65;;;1.55;;
36283;SDS011;56085;48.910;9.478;2024-03-25T13:51:58;2.58;;;1.42;;
36283;SDS011;56085;48.910;9.478;2024-03-25T13:54:24;3.05;;;1.50;;
36283;SDS011;56085;48.910;9.478;2024-03-25T13:56:51;3.38;;;1.40;;
36283;SDS011;56085;48.910;9.478;2024-03-25T13:59:16;2.53;;;1.50;;
36283;SDS011;56085;48.910;9.478;2024-03-25T14:01:41;5.10;;;2.23;;
36283;SDS011;56085;48.910;9.478;2024-03-25T14:04:07;3.60;;;1.70;;
36283;SDS011;56085;48.910;9.478;2024-03-25T14:06:32;3.60;;;1.30;;
36283;SDS011;56085;48.910;9.478;2024-03-25T14:08:58;1.23;;;1.00;;
36283;SDS011;56085;48.910;9.478;2024-03-25T14:11:26;4.20;;;1.80;;
36283;SDS011;56085;48.910;9.478;2024-03-25T14:13:51;2.53;;;1.63;;
36283;SDS011;56085;48.910;9.478;2024-03-25T14:16:16;1.65;;;1.13;;
36283;SDS011;56085;48.910;9.478;2024-03-25T14:18:42;3.67;;;2.20;;
36283;SDS011;56085;48.910;9.478;2024-03-25T14:21:07;3.40;;;1.35;;
36283;SDS011;56085;48.910;9.478;2024-03-25T14:23:32;2.03;;;1.23;;
36283;SDS011;56085;48.910;9.478;2024-03-25T14:25:58;3.87;;;1.80;;
36283;SDS011;56085;48.910;9.478;2024-03-25T14:28:23;1.70;;;1.20;;
36283;SDS011;56085;48.910;9.478;2024-03-25T14:30:48;2.47;;;1.40;;
36283;SDS011;56085;48.910;9.478;2024-03-25T14:33:13;3.97;;;1.57;;
36283;SDS011;56085;48.910;9.478;2024-03-25T14:35:38;2.13;;;1.50;;
36283;SDS011;56085;48.910;9.478;2024-03-25T14:38:04;3.43;;;1.57;;
36283;SDS011;56085;48.910;9.478;2024-03-25T14:40:29;1.77;;;1.00;;
36283;SDS011;56085;48.910;9.478;2024-03-25T14:42:55;3.75;;;1.58;;